sensor_id;sensor_type;location;lat;lon;timestamp;P1;durP1;ratioP1;P2;durP2;ratioP2
70757;SDS011;59316;52.964;7.102;2022-09-20T00:04:47;9.80;;;2.10;;
70757;SDS011;59316;52.964;7.102;2022-09-20T00:09:50;9.88;;;3.03;;
70757;SDS011;59316;52.964;7.102;2022-09-20T00:14:52;10.13;;;2.17;;
70757;SDS011;59316;52.964;7.102;2022-09-20T00:19:54;10.05;;;3.03;;
70757;SDS011;59316;52.964;7.102;2022-09-20T00:24:56;8.98;;;2.33;;
70757;SDS011;59316;52.964;7.102;2022-09-20T00:29:58;11.43;;;2.53;;
70757;SDS011;59316;52.964;7.102;2022-09-20T00:35:01;7.65;;;2.00;;
70757;SDS011;59316;52.964;7.102;2022-09-20T00:40:04;9.73;;;2.90;;
70757;SDS011;59316;52.964;7.102;2022-09-20T00:55:24;13.18;;;2.97;;
70757;SDS011;59316;52.964;7.102;2022-09-20T01:00:28;16.33;;;2.97;;
70757;SDS011;59316;52.964;7.102;2022-09-20T01:05:30;8.83;;;2.23;;
70757;SDS011;59316;52.964;7.102;2022-09-20T01:15:36;11.55;;;2.72;;
70757;SDS011;59316;52.964;7.102;2022-09-20T01:20:41;9.40;;;2.20;;
70757;SDS011;59316;52.964;7.102;2022-09-20T01:31:30;16.10;;;2.40;;
70757;SDS011;59316;52.964;7.102;2022-09-20T01:36:52;6.43;;;2.30;;
70757;SDS011;59316;52.964;7.102;2022-09-20T01:42:42;15.87;;;2.83;;
70757;SDS011;59316;52.964;7.102;2022-09-20T01:53:30;9.18;;;2.97;;
70757;SDS011;59316;52.964;7.102;2022-09-20T02:37:23;8.90;;;2.50;;
70757;SDS011;59316;52.964;7.102;2022-09-20T02:47:52;10.15;;;2.35;;
70757;SDS011;59316;52.964;7.102;2022-09-20T02:53:17;7.57;;;2.38;;
70757;SDS011;59316;52.964;7.102;2022-09-20T03:09:53;8.00;;;2.20;;
70757;SDS011;59316;52.964;7.102;2022-09-20T03:58:17;6.15;;;1.85;;
70757;SDS011;59316;52.964;7.102;2022-09-20T04:03:36;8.73;;;2.42;;
70757;SDS011;59316;52.964;7.102;2022-09-20T04:20:45;5.18;;;2.13;;
70757;SDS011;59316;52.964;7.102;2022-09-20T04:26:02;8.27;;;2.47;;
70757;SDS011;59316;52.964;7.102;2022-09-20T04:31:11;5.53;;;1.90;;
70757;SDS011;59316;52.964;7.102;2022-09-20T05:18:53;10.40;;;2.25;;
70757;SDS011;59316;52.964;7.102;2022-09-20T05:29:18;11.45;;;2.55;;
70757;SDS011;59316;52.964;7.102;2022-09-20T05:39:58;8.07;;;2.50;;
70757;SDS011;59316;52.964;7.102;2022-09-20T05:50:55;7.33;;;2.53;;
70757;SDS011;59316;52.964;7.102;2022-09-20T06:23:22;11.55;;;2.40;;
70757;SDS011;59316;52.964;7.102;2022-09-20T06:33:38;8.57;;;2.42;;
70757;SDS011;59316;52.964;7.102;2022-09-20T06:39:01;8.48;;;2.95;;
70757;SDS011;59316;52.964;7.102;2022-09-20T06:44:21;6.72;;;2.40;;
70757;SDS011;59316;52.964;7.102;2022-09-20T06:49:23;12.93;;;2.80;;
70757;SDS011;59316;52.964;7.102;2022-09-20T06:54:25;11.80;;;3.17;;
70757;SDS011;59316;52.964;7.102;2022-09-20T06:59:28;9.30;;;2.97;;
70757;SDS011;59316;52.964;7.102;2022-09-20T07:04:30;4.68;;;2.08;;
70757;SDS011;59316;52.964;7.102;2022-09-20T07:09:32;5.27;;;2.10;;
70757;SDS011;59316;52.964;7.102;2022-09-20T07:14:35;7.03;;;2.05;;
70757;SDS011;59316;52.964;7.102;2022-09-20T07:19:37;3.93;;;1.67;;
70757;SDS011;59316;52.964;7.102;2022-09-20T07:24:40;2.40;;;1.30;;
70757;SDS011;59316;52.964;7.102;2022-09-20T07:29:42;2.47;;;1.17;;
70757;SDS011;59316;52.964;7.102;2022-09-20T07:34:45;5.25;;;1.23;;
70757;SDS011;59316;52.964;7.102;2022-09-20T07:39:47;8.80;;;1.00;;
70757;SDS011;59316;52.964;7.102;2022-09-20T07:44:50;5.63;;;1.83;;
70757;SDS011;59316;52.964;7.102;2022-09-20T07:49:52;4.70;;;1.17;;
70757;SDS011;59316;52.964;7.102;2022-09-20T07:54:54;4.73;;;0.90;;
70757;SDS011;59316;52.964;7.102;2022-09-20T07:59:56;7.10;;;1.30;;
70757;SDS011;59316;52.964;7.102;2022-09-20T08:04:58;6.43;;;1.20;;
70757;SDS011;59316;52.964;7.102;2022-09-20T08:10:01;4.80;;;1.40;;
70757;SDS011;59316;52.964;7.102;2022-09-20T08:20:11;4.20;;;1.30;;
70757;SDS011;59316;52.964;7.102;2022-09-20T08:25:14;5.07;;;1.20;;
70757;SDS011;59316;52.964;7.102;2022-09-20T08:30:16;3.13;;;1.10;;
70757;SDS011;59316;52.964;7.102;2022-09-20T08:35:18;2.30;;;1.53;;
70757;SDS011;59316;52.964;7.102;2022-09-20T08:40:21;5.20;;;1.00;;
70757;SDS011;59316;52.964;7.102;2022-09-20T08:45:25;4.28;;;1.10;;
70757;SDS011;59316;52.964;7.102;2022-09-20T08:50:39;2.20;;;0.98;;
70757;SDS011;59316;52.964;7.102;2022-09-20T08:55:41;3.57;;;1.50;;
70757;SDS011;59316;52.964;7.102;2022-09-20T09:00:44;5.32;;;1.60;;
70757;SDS011;59316;52.964;7.102;2022-09-20T09:05:54;4.35;;;0.90;;
70757;SDS011;59316;52.964;7.102;2022-09-20T09:10:58;1.83;;;1.15;;
70757;SDS011;59316;52.964;7.102;2022-09-20T09:16:05;4.10;;;0.80;;
70757;SDS011;59316;52.964;7.102;2022-09-20T09:21:25;3.38;;;0.60;;
70757;SDS011;59316;52.964;7.102;2022-09-20T09:26:36;3.88;;;0.80;;
70757;SDS011;59316;52.964;7.102;2022-09-20T09:31:40;6.38;;;1.02;;
70757;SDS011;59316;52.964;7.102;2022-09-20T09:41:51;2.83;;;0.50;;
70757;SDS011;59316;52.964;7.102;2022-09-20T09:46:54;1.27;;;0.50;;
70757;SDS011;59316;52.964;7.102;2022-09-20T10:19:42;0.95;;;0.40;;
70757;SDS011;59316;52.964;7.102;2022-09-20T10:30:24;4.60;;;0.70;;
70757;SDS011;59316;52.964;7.102;2022-09-20T10:57:16;3.50;;;0.60;;
70757;SDS011;59316;52.964;7.102;2022-09-20T11:12:57;2.55;;;0.60;;
70757;SDS011;59316;52.964;7.102;2022-09-20T11:23:38;3.20;;;0.60;;
70757;SDS011;59316;52.964;7.102;2022-09-20T11:28:42;3.33;;;0.50;;
70757;SDS011;59316;52.964;7.102;2022-09-20T11:39:36;2.08;;;0.43;;
70757;SDS011;59316;52.964;7.102;2022-09-20T11:44:55;3.83;;;0.70;;
70757;SDS011;59316;52.964;7.102;2022-09-20T12:00:45;2.78;;;0.55;;
70757;SDS011;59316;52.964;7.102;2022-09-20T12:06:01;2.33;;;0.57;;
70757;SDS011;59316;52.964;7.102;2022-09-20T12:11:10;1.77;;;0.52;;
70757;SDS011;59316;52.964;7.102;2022-09-20T12:16:16;4.15;;;0.68;;
70757;SDS011;59316;52.964;7.102;2022-09-20T12:21:19;2.15;;;0.43;;
70757;SDS011;59316;52.964;7.102;2022-09-20T12:36:25;2.50;;;0.80;;
70757;SDS011;59316;52.964;7.102;2022-09-20T12:41:42;4.50;;;0.65;;
70757;SDS011;59316;52.964;7.102;2022-09-20T12:46:49;2.22;;;0.75;;
70757;SDS011;59316;52.964;7.102;2022-09-20T12:51:52;3.03;;;0.90;;
70757;SDS011;59316;52.964;7.102;2022-09-20T12:56:54;3.15;;;0.70;;
70757;SDS011;59316;52.964;7.102;2022-09-20T13:01:56;3.47;;;0.82;;
70757;SDS011;59316;52.964;7.102;2022-09-20T13:07:24;4.00;;;0.70;;
70757;SDS011;59316;52.964;7.102;2022-09-20T13:12:35;5.05;;;0.80;;
70757;SDS011;59316;52.964;7.102;2022-09-20T13:17:40;5.05;;;0.90;;
70757;SDS011;59316;52.964;7.102;2022-09-20T13:22:44;5.35;;;0.70;;
70757;SDS011;59316;52.964;7.102;2022-09-20T13:27:57;4.22;;;0.73;;
70757;SDS011;59316;52.964;7.102;2022-09-20T13:33:23;3.33;;;0.90;;
70757;SDS011;59316;52.964;7.102;2022-09-20T13:38:30;3.22;;;0.85;;
70757;SDS011;59316;52.964;7.102;2022-09-20T13:43:39;4.10;;;0.77;;
70757;SDS011;59316;52.964;7.102;2022-09-20T13:48:47;5.63;;;0.80;;
70757;SDS011;59316;52.964;7.102;2022-09-20T13:53:53;5.78;;;1.33;;
70757;SDS011;59316;52.964;7.102;2022-09-20T13:59:38;5.75;;;0.90;;
70757;SDS011;59316;52.964;7.102;2022-09-20T14:04:43;6.00;;;0.98;;
70757;SDS011;59316;52.964;7.102;2022-09-20T14:09:45;2.78;;;0.70;;
70757;SDS011;59316;52.964;7.102;2022-09-20T14:14:48;3.45;;;0.73;;
70757;SDS011;59316;52.964;7.102;2022-09-20T14:19:52;6.50;;;0.70;;
70757;SDS011;59316;52.964;7.102;2022-09-20T14:25:00;2.95;;;0.73;;
70757;SDS011;59316;52.964;7.102;2022-09-20T14:30:02;2.70;;;0.60;;
70757;SDS011;59316;52.964;7.102;2022-09-20T14:40:16;1.05;;;0.50;;
70757;SDS011;59316;52.964;7.102;2022-09-20T14:45:26;4.65;;;0.70;;
70757;SDS011;59316;52.964;7.102;2022-09-20T14:50:37;4.00;;;0.90;;
70757;SDS011;59316;52.964;7.102;2022-09-20T15:01:03;2.45;;;0.77;;
70757;SDS011;59316;52.964;7.102;2022-09-20T15:06:15;3.97;;;0.63;;
70757;SDS011;59316;52.964;7.102;2022-09-20T15:11:17;4.05;;;0.70;;
70757;SDS011;59316;52.964;7.102;2022-09-20T15:21:22;9.05;;;1.27;;
70757;SDS011;59316;52.964;7.102;2022-09-20T15:26:24;3.70;;;0.68;;
70757;SDS011;59316;52.964;7.102;2022-09-20T15:31:27;2.58;;;0.60;;
70757;SDS011;59316;52.964;7.102;2022-09-20T15:36:29;3.38;;;1.77;;
70757;SDS011;59316;52.964;7.102;2022-09-20T15:41:31;3.40;;;0.65;;
70757;SDS011;59316;52.964;7.102;2022-09-20T15:46:34;1.33;;;0.45;;
70757;SDS011;59316;52.964;7.102;2022-09-20T15:51:36;2.70;;;0.80;;
70757;SDS011;59316;52.964;7.102;2022-09-20T15:56:38;0.65;;;0.38;;
70757;SDS011;59316;52.964;7.102;2022-09-20T16:01:41;3.55;;;0.93;;
70757;SDS011;59316;52.964;7.102;2022-09-20T16:06:46;4.03;;;1.88;;
70757;SDS011;59316;52.964;7.102;2022-09-20T16:11:49;4.35;;;0.98;;
70757;SDS011;59316;52.964;7.102;2022-09-20T16:16:52;4.10;;;1.80;;
70757;SDS011;59316;52.964;7.102;2022-09-20T16:21:55;3.57;;;1.17;;
70757;SDS011;59316;52.964;7.102;2022-09-20T16:27:00;4.15;;;0.90;;
70757;SDS011;59316;52.964;7.102;2022-09-20T16:32:04;2.28;;;0.95;;
70757;SDS011;59316;52.964;7.102;2022-09-20T16:37:08;7.38;;;1.33;;
70757;SDS011;59316;52.964;7.102;2022-09-20T16:42:11;4.65;;;0.95;;
70757;SDS011;59316;52.964;7.102;2022-09-20T16:47:13;4.05;;;1.05;;
70757;SDS011;59316;52.964;7.102;2022-09-20T16:52:15;4.18;;;0.73;;
70757;SDS011;59316;52.964;7.102;2022-09-20T16:57:18;6.03;;;0.80;;
70757;SDS011;59316;52.964;7.102;2022-09-20T17:02:19;7.53;;;1.02;;
70757;SDS011;59316;52.964;7.102;2022-09-20T17:07:21;5.43;;;1.00;;
70757;SDS011;59316;52.964;7.102;2022-09-20T17:12:23;6.38;;;0.80;;
70757;SDS011;59316;52.964;7.102;2022-09-20T17:17:25;1.88;;;1.02;;
70757;SDS011;59316;52.964;7.102;2022-09-20T17:22:27;3.38;;;0.93;;
70757;SDS011;59316;52.964;7.102;2022-09-20T17:27:28;6.47;;;1.65;;
70757;SDS011;59316;52.964;7.102;2022-09-20T17:32:30;4.38;;;1.08;;
70757;SDS011;59316;52.964;7.102;2022-09-20T17:37:32;3.80;;;1.10;;
70757;SDS011;59316;52.964;7.102;2022-09-20T17:42:34;5.72;;;1.70;;
70757;SDS011;59316;52.964;7.102;2022-09-20T17:47:36;6.00;;;0.98;;
70757;SDS011;59316;52.964;7.102;2022-09-20T17:52:38;4.80;;;1.20;;
70757;SDS011;59316;52.964;7.102;2022-09-20T17:57:39;3.63;;;1.05;;
70757;SDS011;59316;52.964;7.102;2022-09-20T18:02:41;4.82;;;1.42;;
70757;SDS011;59316;52.964;7.102;2022-09-20T18:07:43;3.85;;;1.17;;
70757;SDS011;59316;52.964;7.102;2022-09-20T18:12:45;6.28;;;1.20;;
70757;SDS011;59316;52.964;7.102;2022-09-20T18:17:47;7.40;;;1.13;;
70757;SDS011;59316;52.964;7.102;2022-09-20T18:22:55;3.33;;;1.17;;
70757;SDS011;59316;52.964;7.102;2022-09-20T18:27:56;2.72;;;1.20;;
70757;SDS011;59316;52.964;7.102;2022-09-20T18:33:01;3.92;;;1.25;;
70757;SDS011;59316;52.964;7.102;2022-09-20T18:38:02;3.40;;;0.70;;
70757;SDS011;59316;52.964;7.102;2022-09-20T18:43:06;5.60;;;0.90;;
70757;SDS011;59316;52.964;7.102;2022-09-20T18:48:08;1.23;;;0.83;;
70757;SDS011;59316;52.964;7.102;2022-09-20T18:53:10;4.80;;;1.40;;
70757;SDS011;59316;52.964;7.102;2022-09-20T18:58:12;8.05;;;1.52;;
70757;SDS011;59316;52.964;7.102;2022-09-20T19:03:21;6.80;;;1.58;;
70757;SDS011;59316;52.964;7.102;2022-09-20T19:08:36;5.00;;;1.30;;
70757;SDS011;59316;52.964;7.102;2022-09-20T19:29:08;8.23;;;1.83;;
70757;SDS011;59316;52.964;7.102;2022-09-20T19:34:16;4.18;;;1.30;;
70757;SDS011;59316;52.964;7.102;2022-09-20T19:55:11;6.45;;;1.63;;
70757;SDS011;59316;52.964;7.102;2022-09-20T20:00:15;4.38;;;1.25;;
70757;SDS011;59316;52.964;7.102;2022-09-20T20:05:18;3.97;;;1.42;;
70757;SDS011;59316;52.964;7.102;2022-09-20T20:20:44;6.40;;;1.65;;
70757;SDS011;59316;52.964;7.102;2022-09-20T20:30:48;4.07;;;1.40;;
70757;SDS011;59316;52.964;7.102;2022-09-20T20:35:54;4.32;;;1.70;;
70757;SDS011;59316;52.964;7.102;2022-09-20T20:41:00;4.85;;;1.80;;
70757;SDS011;59316;52.964;7.102;2022-09-20T20:46:02;4.32;;;1.65;;
70757;SDS011;59316;52.964;7.102;2022-09-20T20:51:06;6.87;;;1.77;;
70757;SDS011;59316;52.964;7.102;2022-09-20T20:56:09;3.70;;;2.05;;
70757;SDS011;59316;52.964;7.102;2022-09-20T21:06:13;5.72;;;1.98;;
70757;SDS011;59316;52.964;7.102;2022-09-20T21:11:16;10.35;;;2.40;;
70757;SDS011;59316;52.964;7.102;2022-09-20T21:26:22;2.63;;;1.10;;
70757;SDS011;59316;52.964;7.102;2022-09-20T21:31:25;2.00;;;1.30;;
70757;SDS011;59316;52.964;7.102;2022-09-20T21:36:28;8.13;;;1.77;;
70757;SDS011;59316;52.964;7.102;2022-09-20T21:41:31;3.03;;;1.63;;
70757;SDS011;59316;52.964;7.102;2022-09-20T21:46:35;4.65;;;1.75;;
70757;SDS011;59316;52.964;7.102;2022-09-20T21:51:38;5.20;;;2.35;;
70757;SDS011;59316;52.964;7.102;2022-09-20T21:56:40;4.80;;;1.77;;
70757;SDS011;59316;52.964;7.102;2022-09-20T22:01:42;4.15;;;1.27;;
70757;SDS011;59316;52.964;7.102;2022-09-20T22:06:44;5.78;;;1.55;;
70757;SDS011;59316;52.964;7.102;2022-09-20T22:11:47;4.32;;;1.30;;
70757;SDS011;59316;52.964;7.102;2022-09-20T22:16:49;6.97;;;2.03;;
70757;SDS011;59316;52.964;7.102;2022-09-20T22:21:51;4.10;;;1.60;;
70757;SDS011;59316;52.964;7.102;2022-09-20T22:26:52;2.83;;;1.80;;
70757;SDS011;59316;52.964;7.102;2022-09-20T22:31:54;5.10;;;2.40;;
70757;SDS011;59316;52.964;7.102;2022-09-20T22:36:56;5.70;;;1.90;;
70757;SDS011;59316;52.964;7.102;2022-09-20T22:41:58;1.20;;;0.70;;
70757;SDS011;59316;52.964;7.102;2022-09-20T22:47:00;2.80;;;0.70;;
70757;SDS011;59316;52.964;7.102;2022-09-20T22:52:02;1.02;;;0.85;;
70757;SDS011;59316;52.964;7.102;2022-09-20T22:57:05;1.55;;;1.13;;
70757;SDS011;59316;52.964;7.102;2022-09-20T23:02:07;2.08;;;1.17;;
70757;SDS011;59316;52.964;7.102;2022-09-20T23:07:09;1.75;;;0.90;;
70757;SDS011;59316;52.964;7.102;2022-09-20T23:12:11;1.08;;;0.90;;
70757;SDS011;59316;52.964;7.102;2022-09-20T23:17:12;5.53;;;2.65;;
70757;SDS011;59316;52.964;7.102;2022-09-20T23:22:14;3.15;;;1.70;;
70757;SDS011;59316;52.964;7.102;2022-09-20T23:27:16;4.68;;;1.85;;
70757;SDS011;59316;52.964;7.102;2022-09-20T23:32:18;4.05;;;1.83;;
70757;SDS011;59316;52.964;7.102;2022-09-20T23:37:20;5.65;;;1.83;;
70757;SDS011;59316;52.964;7.102;2022-09-20T23:42:22;5.22;;;2.47;;
70757;SDS011;59316;52.964;7.102;2022-09-20T23:47:24;4.55;;;2.05;;
70757;SDS011;59316;52.964;7.102;2022-09-20T23:52:26;2.50;;;1.52;;
70757;SDS011;59316;52.964;7.102;2022-09-20T23:57:28;7.15;;;2.90;;
